Latest Coastal Weather Observations for Larapuna (Eddystone Point)

IDT60701

Issued at 9:02 am EST Friday 24 May 2019 (issued every 10 minutes, with the page automatically refreshed every 10 minutes)

About coastal observations | Map of coastal stations | Coastal observations for TAS | Marine services | Other Formats
Station Details ID: 092045 Name: LARAPUNA (EDDYSTONE POINT) Lat: -40.99 Lon: 148.35 Height: 19.7 m
Data from the previous 72 hours. | See also: Recent months at Larapuna (Eddystone Point)
Date/Time
EST
Wind Sea
Height
m
Swell Vis
km
Cloud Weather Temp
°C
Press
hPa
Rain since
9am
mm
Dir  Spd
kts
Gust
kts
Height
m
Period
s
Dir
24/09:00am NNW 9 11 - - - - - - - 14.8 1016.5 0.2
24/08:30am NNW 10 12 - - - - - - - 14.8 1016.5 0.2
24/08:00am NNW 11 14 - - - - - - - 14.9 1016.7 0.2
24/07:30am N 10 13 - - - - - - - 14.6 1016.5 0.2
24/07:00am NNW 8 10 - - - - - - - 14.4 1016.6 0.2
24/06:30am NNW 9 11 - - - - - - - 14.3 1016.5 0.2
24/06:00am NW 9 12 - - - - - - - 14.6 1016.3 0.2
24/05:30am NNW 10 13 - - - - - - - 14.6 1016.3 0.2
24/05:00am NW 10 13 - - - - - - - 14.5 1016.3 0.2
24/04:30am NNW 8 12 - - - - - - - 14.0 1016.2 0.2
24/04:00am NW 12 16 - - - - - - - 14.0 1016.0 0.2
24/03:30am WNW 16 21 - - - - - - - 14.3 1016.0 0.2
24/03:00am WNW 19 26 - - - - - - - 15.1 1016.4 0.0
24/02:49am WNW 17 27 - - - - - - - 15.3 1016.7 0.0
24/02:30am WNW 16 21 - - - - - - - 15.3 1016.9 0.0
24/02:00am NW 11 15 - - - - - - - 13.9 1017.2 0.0
24/01:30am NW 8 10 - - - - - - - 12.9 1017.2 0.0
24/01:00am NW 6 7 - - - - - - - 12.7 1017.5 0.0
24/12:30am NNW 7 8 - - - - - - - 13.0 1017.5 0.0
24/12:00am NNW 7 9 - - - - - - - 12.9 1017.9 0.0
 
Date/Time
EST
Wind Sea
Height
m
Swell Vis
km
Cloud Weather Temp
°C
Press
hPa
Rain since
9am
mm
Dir  Spd
kts
Gust
kts
Height
m
Period
s
Dir
23/11:30pm NW 6 8 - - - - - - - 13.2 1018.1 0.0
23/11:00pm NW 7 10 - - - - - - - 12.8 1018.5 0.0
23/10:30pm NW 8 9 - - - - - - - 12.7 1019.0 0.0
23/10:00pm NW 8 10 - - - - - - - 13.0 1019.2 0.0
23/09:30pm NW 8 10 - - - - - - - 13.0 1019.4 0.0
23/09:00pm NW 9 11 - - - - - - - 13.2 1019.4 0.0
23/08:30pm NW 9 11 - - - - - - - 13.7 1019.8 0.0
23/08:00pm NW 12 16 - - - - - - - 13.7 1019.8 0.0
23/07:30pm NW 13 18 - - - - - - - 13.8 1019.8 0.0
23/07:00pm NW 11 13 - - - - - - - 13.3 1019.9 0.0
23/06:30pm NW 10 15 - - - - - - - 13.5 1020.0 0.0
23/06:00pm NW 12 16 - - - - - - - 13.9 1020.0 0.0
23/05:30pm NW 14 18 - - - - - - - 14.2 1019.9 0.0
23/05:00pm NW 14 19 - - - - - - - 14.5 1019.8 0.0
23/04:30pm NW 15 19 - - - - - - - 15.0 1019.9 0.0
23/04:00pm NW 18 26 - - - - - - - 15.5 1020.1 0.0
23/03:30pm NW 15 21 - - - - - - - 15.8 1020.2 0.0
23/03:00pm NW 15 21 - - - - - - - 15.8 1020.5 0.0
23/02:30pm NW 14 19 - - - - - - - 16.7 1020.8 0.0
23/02:00pm NW 18 23 - - - - - - - 16.9 1021.1 0.0
23/01:30pm NNW 15 20 - - - - - - - 15.8 1021.6 0.0
23/01:00pm NNW 16 21 - - - - - - - 15.6 1022.0 0.0
23/12:30pm NNW 15 21 - - - - - - - 15.6 1022.4 0.0
23/12:00pm NNW 18 22 - - - - - - - 15.6 1023.0 0.0
23/11:30am NNW 10 14 - - - - - - - 15.6 1023.5 0.0
23/11:00am NNW 9 13 - - - - - - - 15.4 1024.2 0.0
23/10:30am NNW 10 14 - - - - - - - 16.0 1024.6 0.0
23/10:00am NW 10 13 - - - - - - - 14.5 1024.9 0.0
23/09:30am NW 10 12 - - - - - - - 12.8 1025.1 0.0
23/09:00am NW 9 11 - - - - - - - 12.2 1025.2 0.2
23/08:30am NW 7 9 - - - - - - - 11.5 1025.3 0.2
23/08:00am WNW 8 11 - - - - - - - 10.6 1025.0 0.2
23/07:30am WNW 11 14 - - - - - - - 10.5 1024.7 0.2
23/07:00am WNW 10 14 - - - - - - - 10.6 1024.4 0.2
23/06:30am WNW 10 13 - - - - - - - 10.3 1024.2 0.0
23/06:00am NW 8 10 - - - - - - - 10.3 1024.3 0.0
23/05:30am NW 8 11 - - - - - - - 10.5 1024.3 0.0
23/05:00am NW 7 8 - - - - - - - 10.5 1024.3 0.0
23/04:30am NW 7 10 - - - - - - - 10.5 1024.3 0.0
23/04:00am NW 8 11 - - - - - - - 10.5 1024.4 0.0
23/03:30am NW 9 11 - - - - - - - 10.9 1024.6 0.0
23/03:00am WNW 8 10 - - - - - - - 11.1 1024.8 0.0
23/02:30am WNW 7 9 - - - - - - - 11.2 1025.0 0.0
23/02:00am NNW 9 12 - - - - - - - 12.1 1024.7 0.0
23/01:30am NNW 8 9 - - - - - - - 10.9 1024.9 0.0
23/01:00am WNW 8 10 - - - - - - - 10.7 1025.2 0.0
23/12:30am NW 8 10 - - - - - - - 10.9 1025.6 0.0
23/12:00am NW 8 10 - - - - - - - 11.1 1025.7 0.0
 
Date/Time
EST
Wind Sea
Height
m
Swell Vis
km
Cloud Weather Temp
°C
Press
hPa
Rain since
9am
mm
Dir  Spd
kts
Gust
kts
Height
m
Period
s
Dir
22/11:30pm NNW 7 8 - - - - - - - 10.5 1025.9 0.0
22/11:00pm NW 7 8 - - - - - - - 10.1 1026.0 0.0
22/10:30pm NW 10 11 - - - - - - - 9.4 1026.1 0.0
22/10:00pm NW 7 8 - - - - - - - 9.9 1026.2 0.0
22/09:30pm NW 7 8 - - - - - - - 10.0 1026.2 0.0
22/09:00pm NW 6 7 - - - - - - - 10.6 1026.2 0.0
22/08:30pm NW 6 7 - - - - - - - 10.9 1026.2 0.0
22/08:00pm NW 7 8 - - - - - - - 11.4 1026.0 0.0
22/07:30pm NW 6 8 - - - - - - - 11.7 1025.9 0.0
22/07:00pm WNW 8 11 - - - - - - - 12.4 1025.7 0.0
22/06:30pm NW 9 12 - - - - - - - 12.6 1025.5 0.0
22/06:00pm NW 9 13 - - - - - - - 12.9 1025.3 0.0
22/05:30pm NW 9 13 - - - - - - - 13.1 1025.1 0.0
22/05:00pm WNW 10 15 - - - - - - - 13.8 1024.9 0.0
22/04:30pm WNW 10 14 - - - - - - - 14.9 1024.6 0.0
22/04:00pm WNW 11 19 - - - - - - - 16.2 1024.2 0.0
22/03:30pm WNW 8 14 - - - - - - - 17.2 1024.0 0.0
22/03:00pm W 13 24 - - - - - - - 17.5 1023.7 0.0
22/02:32pm WNW 15 26 - - - - - - - 17.8 1023.3 0.0
22/02:30pm WNW 13 21 - - - - - - - 17.8 1023.3 0.0
22/02:00pm WNW 16 25 - - - - - - - 18.8 1023.2 0.0
22/01:42pm WNW 15 26 - - - - - - - 18.3 1023.2 0.0
22/01:30pm WNW 13 21 - - - - - - - 18.5 1023.5 0.0
22/01:00pm WNW 12 18 - - - - - - - 18.1 1023.9 0.0
22/12:30pm WNW 9 13 - - - - - - - 17.6 1024.2 0.0
22/12:00pm WNW 18 24 - - - - - - - 16.7 1023.9 0.0
22/11:30am WNW 17 24 - - - - - - - 17.6 1024.6 0.0
22/11:00am W 13 19 - - - - - - - 17.1 1025.0 0.0
22/10:30am WNW 13 21 - - - - - - - 16.8 1024.9 0.0
22/10:00am WNW 14 21 - - - - - - - 16.1 1024.7 0.0
22/09:30am WNW 16 23 - - - - - - - 15.8 1024.3 0.0
22/09:00am NW 15 24 - - - - - - - 15.6 1024.1 0.2
22/08:30am NW 13 19 - - - - - - - 15.3 1024.0 0.2
22/08:00am NW 11 15 - - - - - - - 14.6 1024.1 0.2
22/07:30am NW 14 17 - - - - - - - 14.2 1023.7 0.0
22/07:00am NW 13 17 - - - - - - - 14.0 1023.5 0.0
22/06:30am WNW 11 16 - - - - - - - 13.8 1023.2 0.0
22/06:00am WNW 10 14 - - - - - - - 13.4 1022.9 0.0
22/05:30am WNW 9 14 - - - - - - - 13.4 1022.7 0.0
22/05:00am NW 11 15 - - - - - - - 13.5 1022.6 0.0
22/04:30am NW 9 12 - - - - - - - 13.3 1022.4 0.0
22/04:00am NW 11 14 - - - - - - - 13.4 1022.1 0.0
22/03:30am NW 11 13 - - - - - - - 13.4 1022.1 0.0
22/03:00am NW 11 15 - - - - - - - 13.6 1022.1 0.0
22/02:30am NW 13 16 - - - - - - - 13.6 1021.9 0.0
22/02:00am NW 13 17 - - - - - - - 13.9 1022.0 0.0
22/01:30am NW 15 21 - - - - - - - 14.3 1021.9 0.0
22/01:00am NW 15 21 - - - - - - - 14.5 1021.9 0.0
22/12:30am NW 10 14 - - - - - - - 14.7 1022.0 0.0
22/12:00am NW 12 17 - - - - - - - 14.5 1022.0 0.0
 
Date/Time
EST
Wind Sea
Height
m
Swell Vis
km
Cloud Weather Temp
°C
Press
hPa
Rain since
9am
mm
Dir  Spd
kts
Gust
kts
Height
m
Period
s
Dir
21/11:30pm NW 12 15 - - - - - - - 14.4 1021.8 0.0
21/11:00pm NW 13 17 - - - - - - - 14.5 1021.7 0.0
21/10:30pm NW 13 17 - - - - - - - 14.3 1021.5 0.0
21/10:00pm WNW 16 23 - - - - - - - 13.6 1021.3 0.0
21/09:30pm WNW 19 29 - - - - - - - 13.8 1020.9 0.0
21/09:23pm WNW 17 29 - - - - - - - 13.8 1020.8 0.0
21/09:00pm WNW 17 24 - - - - - - - 13.9 1020.4 0.0
21/08:30pm WNW 11 20 - - - - - - - 14.0 1020.4 0.0
21/08:00pm WNW 11 17 - - - - - - - 13.9 1020.4 0.0
21/07:30pm WNW 12 21 - - - - - - - 13.7 1020.2 0.0
21/07:00pm WNW 15 21 - - - - - - - 14.0 1019.8 0.0
21/06:30pm WNW 17 24 - - - - - - - 14.2 1019.4 0.0
21/06:00pm WNW 19 26 - - - - - - - 14.4 1018.8 0.0
21/05:30pm WNW 22 32 - - - - - - - 14.5 1018.5 0.0
21/05:17pm WNW 21 31 - - - - - - - 14.6 1018.4 0.0
21/05:00pm NW 18 26 - - - - - - - 14.6 1018.4 0.0
21/04:30pm WNW 16 22 - - - - - - - 14.9 1018.6 0.0
21/04:00pm NW 15 22 - - - - - - - 15.2 1018.2 0.0
21/03:30pm NW 16 22 - - - - - - - 15.1 1018.0 0.0
21/03:00pm WNW 17 27 - - - - - - - 15.1 1017.9 0.0
21/02:58pm WNW 17 27 - - - - - - - 15.1 1017.9 0.0
21/02:30pm WNW 17 23 - - - - - - - 16.0 1017.6 0.0
21/02:02pm WNW 16 26 - - - - - - - 17.1 1017.6 0.0
21/02:00pm WNW 17 26 - - - - - - - 17.1 1017.6 0.0
21/01:30pm WNW 17 28 - - - - - - - 16.9 1017.6 0.0
21/01:09pm WNW 15 27 - - - - - - - 16.2 1017.7 0.0
21/01:00pm WNW 12 19 - - - - - - - 16.3 1017.7 0.0
21/12:32pm WNW 15 27 - - - - - - - 16.1 1017.7 0.0
21/12:30pm WNW 14 21 - - - - - - - 16.1 1017.7 0.0
21/12:04pm WNW 17 27 - - - - - - - 15.6 1017.8 0.0
21/12:00pm WNW 18 27 - - - - - - - 15.6 1017.9 0.0
21/11:56am WNW 17 27 - - - - - - - 15.5 1017.9 0.0
21/11:30am WNW 17 25 - - - - - - - 14.9 1018.3 0.0
21/11:00am WNW 17 27 - - - - - - - 14.5 1018.2 0.0
21/10:53am WNW 16 27 - - - - - - - 14.8 1018.1 0.0
21/10:30am WNW 16 22 - - - - - - - 14.3 1018.2 0.0
21/10:00am NW 15 24 - - - - - - - 15.1 1018.0 0.0
21/09:30am WNW 13 20 - - - - - - - 14.5 1018.1 0.0

Other formats

Comma delimited format used in spreadsheet applications
http://www.bom.gov.au/fwo/IDT60701/IDT60701.94983.axf

JavaScript Object Notation format (JSON) in row-major order
http://www.bom.gov.au/fwo/IDT60701/IDT60701.94983.json

Data quality

Most of these data are generated automatically and are frequently updated. Quality checks on data are not normally performed. It is possible for incorrect values to appear. Refer to information at About Latest Weather Observations and please check the disclaimer before using these data.